createdAt,value
2022-08-29T00:02:12.500Z,97624.81
2022-08-29T00:04:40.976Z,97635.19
2022-08-29T00:07:09.611Z,97633.94
2022-08-29T00:09:37.846Z,97624.16
2022-08-29T00:12:08.187Z,97623.22
2022-08-29T00:14:36.871Z,97626.94
2022-08-29T00:17:05.535Z,97634.66
2022-08-29T00:19:33.789Z,97630.25
2022-08-29T00:22:02.038Z,97625.19
2022-08-29T00:24:30.405Z,97623.03
2022-08-29T00:27:00.449Z,97617.66
2022-08-29T00:29:30.237Z,97604.88
2022-08-29T00:31:58.492Z,97607.53
2022-08-29T00:34:26.767Z,97601.56
2022-08-29T00:36:55.067Z,97607.44
2022-08-29T00:39:23.343Z,97613.63
2022-08-29T00:41:52.468Z,97617.75
2022-08-29T00:44:20.987Z,97619.25
2022-08-29T00:46:53.230Z,97621.91
2022-08-29T00:49:29.189Z,97617.31
2022-08-29T00:51:58.762Z,97626.13
2022-08-29T00:54:28.145Z,97627.63
2022-08-29T00:56:56.771Z,97636.13
2022-08-29T00:59:28.273Z,97637.53
2022-08-29T01:01:58.113Z,97638.13
2022-08-29T01:04:26.530Z,97642.13
2022-08-29T01:06:55.434Z,97640.69
2022-08-29T01:09:24.249Z,97642.00
2022-08-29T01:12:09.990Z,97643.28
2022-08-29T01:14:38.827Z,97654.28
2022-08-29T01:17:11.069Z,97651.44
2022-08-29T01:19:46.726Z,97652.81
2022-08-29T01:22:24.157Z,97657.91
2022-08-29T01:24:54.944Z,97658.22
2022-08-29T01:27:25.468Z,97653.91
2022-08-29T01:29:53.839Z,97655.97
2022-08-29T01:32:23.056Z,97665.31
2022-08-29T01:34:51.371Z,97653.97
2022-08-29T01:37:20.115Z,97658.59
2022-08-29T01:39:48.399Z,97664.41
2022-08-29T01:42:20.537Z,97666.94
2022-08-29T01:44:53.493Z,97665.38
2022-08-29T01:47:22.566Z,97666.66
2022-08-29T01:49:51.114Z,97660.66
2022-08-29T01:52:19.440Z,97667.66
2022-08-29T01:54:47.866Z,97671.94
2022-08-29T01:57:19.185Z,97672.38
2022-08-29T01:59:47.567Z,97670.22
2022-08-29T02:02:18.338Z,97660.94
2022-08-29T02:04:47.348Z,97668.00
2022-08-29T02:07:17.643Z,97669.06
2022-08-29T02:09:46.769Z,97669.94
2022-08-29T02:12:15.175Z,97670.06
2022-08-29T02:14:45.326Z,97660.91
2022-08-29T02:17:13.661Z,97667.50
2022-08-29T02:19:42.627Z,97662.91
2022-08-29T02:22:11.558Z,97664.56
2022-08-29T02:24:40.145Z,97660.84
2022-08-29T02:27:09.612Z,97665.19
2022-08-29T02:29:38.679Z,97666.34
2022-08-29T02:32:12.159Z,97666.47
2022-08-29T02:34:43.897Z,97667.94
2022-08-29T02:37:13.218Z,97665.00
2022-08-29T02:39:41.488Z,97671.03
2022-08-29T02:42:09.779Z,97671.16
2022-08-29T02:44:38.401Z,97670.25
2022-08-29T02:47:09.375Z,97668.13
2022-08-29T02:49:39.623Z,97679.38
2022-08-29T02:52:08.743Z,97683.72
2022-08-29T02:54:37.284Z,97685.81
2022-08-29T02:57:06.379Z,97678.81
2022-08-29T02:59:34.700Z,97679.19
2022-08-29T03:02:03.075Z,97678.34
2022-08-29T03:04:33.885Z,97683.97
2022-08-29T03:07:02.232Z,97683.38
2022-08-29T03:09:30.491Z,97679.88
2022-08-29T03:11:58.829Z,97673.06
2022-08-29T03:14:27.131Z,97675.91
2022-08-29T03:16:55.461Z,97669.09
2022-08-29T03:19:24.012Z,97685.09
2022-08-29T03:21:53.760Z,97682.00
2022-08-29T03:24:26.867Z,97674.22
2022-08-29T03:26:56.791Z,97681.84
2022-08-29T03:29:27.128Z,97677.63
2022-08-29T03:31:58.613Z,97681.97
2022-08-29T03:34:27.454Z,97669.09
2022-08-29T03:36:57.121Z,97663.28
2022-08-29T03:39:25.434Z,97667.41
2022-08-29T03:41:53.757Z,97662.78
2022-08-29T03:44:22.021Z,97664.66
2022-08-29T03:46:50.317Z,97662.16
2022-08-29T03:49:18.701Z,97663.84
2022-08-29T03:51:47.105Z,97662.44
2022-08-29T03:54:16.823Z,97671.38
2022-08-29T03:56:46.206Z,97668.66
2022-08-29T03:59:14.486Z,97660.84
2022-08-29T04:01:42.837Z,97656.41
2022-08-29T04:04:31.685Z,97660.59
2022-08-29T04:07:01.139Z,97662.69
2022-08-29T04:09:30.833Z,97661.13
2022-08-29T04:11:59.629Z,97665.41
2022-08-29T04:14:29.607Z,97661.81
2022-08-29T04:16:58.177Z,97666.66
2022-08-29T04:19:26.409Z,97668.28
2022-08-29T04:21:54.793Z,97665.50
2022-08-29T04:24:23.039Z,97664.44
2022-08-29T04:26:52.854Z,97664.84
2022-08-29T04:29:21.050Z,97669.25
2022-08-29T04:31:49.440Z,97658.09
2022-08-29T04:34:18.216Z,97656.91
2022-08-29T04:36:47.304Z,97654.78
2022-08-29T04:39:16.057Z,97659.81
2022-08-29T04:41:44.652Z,97663.09
2022-08-29T04:44:14.529Z,97668.56
2022-08-29T04:46:42.781Z,97665.91
2022-08-29T04:49:10.970Z,97679.91
2022-08-29T04:51:39.164Z,97673.69
2022-08-29T04:54:07.801Z,97675.97
2022-08-29T04:56:38.171Z,97686.59
2022-08-29T04:59:11.814Z,97684.75
2022-08-29T05:01:42.436Z,97685.84
2022-08-29T05:04:14.366Z,97683.72
2022-08-29T05:06:43.536Z,97686.66
2022-08-29T05:09:11.717Z,97687.09
2022-08-29T05:11:40.280Z,97694.50
2022-08-29T05:14:08.501Z,97693.88
2022-08-29T05:16:37.909Z,97692.88
2022-08-29T05:19:09.627Z,97693.50
2022-08-29T05:21:39.881Z,97694.69
2022-08-29T05:24:11.770Z,97689.03
2022-08-29T05:26:42.196Z,97699.19
2022-08-29T05:29:13.438Z,97693.72
2022-08-29T05:31:45.396Z,97699.72
2022-08-29T05:34:34.330Z,97697.16
2022-08-29T05:37:05.111Z,97693.44
2022-08-29T05:39:33.924Z,97693.00
2022-08-29T05:42:02.561Z,97695.31
2022-08-29T05:44:35.261Z,97697.03
2022-08-29T05:47:04.618Z,97687.16
2022-08-29T05:49:34.207Z,97690.88
2022-08-29T05:52:02.395Z,97691.03
2022-08-29T05:54:30.559Z,97691.56
2022-08-29T05:56:59.077Z,97695.72
2022-08-29T05:59:27.338Z,97695.34
2022-08-29T06:01:55.576Z,97687.97
2022-08-29T06:04:23.758Z,97687.84
2022-08-29T06:06:53.335Z,97686.53
2022-08-29T06:09:21.510Z,97691.06
2022-08-29T06:11:50.778Z,97689.78
2022-08-29T06:14:19.811Z,97690.16
2022-08-29T06:16:48.023Z,97694.25
2022-08-29T06:19:16.308Z,97688.31
2022-08-29T06:21:44.476Z,97686.28
2022-08-29T06:24:14.196Z,97681.72
2022-08-29T06:26:42.525Z,97683.66
2022-08-29T06:29:11.331Z,97681.97
2022-08-29T06:31:40.470Z,97682.06
2022-08-29T06:34:09.757Z,97687.56
2022-08-29T06:36:38.405Z,97681.28
2022-08-29T06:39:09.180Z,97685.75
2022-08-29T06:41:40.199Z,97677.69
2022-08-29T06:44:09.246Z,97684.94
2022-08-29T06:46:39.474Z,97688.78
2022-08-29T06:49:09.297Z,97686.69
2022-08-29T06:51:38.235Z,97691.59
2022-08-29T06:54:08.495Z,97697.69
2022-08-29T06:56:40.626Z,97703.22
2022-08-29T06:59:11.342Z,97702.94
2022-08-29T07:01:39.796Z,97699.72
2022-08-29T07:04:14.380Z,97696.16
2022-08-29T07:06:43.425Z,97702.72
2022-08-29T07:09:12.365Z,97703.00
2022-08-29T07:11:43.037Z,97705.88
2022-08-29T07:14:12.145Z,97701.59
2022-08-29T07:16:41.277Z,97700.31
2022-08-29T07:19:11.309Z,97706.84
2022-08-29T07:21:40.482Z,97707.28
2022-08-29T07:24:09.197Z,97701.47
2022-08-29T07:26:39.046Z,97715.88
2022-08-29T07:29:11.152Z,97708.13
2022-08-29T07:31:40.172Z,97714.19
2022-08-29T07:34:09.141Z,97713.97
2022-08-29T07:36:37.744Z,97700.25
2022-08-29T07:39:08.853Z,97698.13
2022-08-29T07:41:39.424Z,97704.59
2022-08-29T07:44:09.203Z,97706.56
2022-08-29T07:46:37.738Z,97701.50
2022-08-29T07:49:06.769Z,97705.13
2022-08-29T07:51:35.912Z,97704.25
2022-08-29T07:54:04.721Z,97700.00
2022-08-29T07:56:37.992Z,97703.47
2022-08-29T07:59:08.469Z,97707.91
2022-08-29T08:01:37.542Z,97702.66
2022-08-29T08:04:05.880Z,97701.38
2022-08-29T08:06:36.712Z,97693.47
2022-08-29T08:09:06.039Z,97705.66
2022-08-29T08:11:34.301Z,97712.44
2022-08-29T08:14:02.825Z,97708.78
2022-08-29T08:16:33.058Z,97707.50
2022-08-29T08:19:01.692Z,97706.41
2022-08-29T08:21:30.228Z,97713.56
2022-08-29T08:23:58.447Z,97711.63
2022-08-29T08:26:27.214Z,97712.63
2022-08-29T08:28:55.554Z,97716.47
2022-08-29T08:31:24.277Z,97708.38
2022-08-29T08:33:54.173Z,97698.56
2022-08-29T08:36:24.512Z,97706.53
2022-08-29T08:38:54.364Z,97704.31
2022-08-29T08:41:31.236Z,97706.91
2022-08-29T08:44:02.517Z,97714.13
2022-08-29T08:46:36.762Z,97711.88
2022-08-29T08:49:10.480Z,97708.19
2022-08-29T08:51:43.325Z,97705.00
2022-08-29T08:54:17.713Z,97704.06
2022-08-29T08:56:48.436Z,97692.53
2022-08-29T08:59:20.383Z,97697.28
2022-08-29T09:02:06.389Z,97704.25
2022-08-29T09:04:47.453Z,97695.28
2022-08-29T09:07:39.417Z,97696.28
2022-08-29T09:10:19.675Z,97695.75
2022-08-29T09:12:56.811Z,97695.31
2022-08-29T09:15:32.786Z,97688.28
2022-08-29T09:18:05.164Z,97699.06
2022-08-29T09:20:37.284Z,97700.09
2022-08-29T09:23:10.845Z,97698.81
2022-08-29T09:25:39.058Z,97696.28
2022-08-29T09:28:08.346Z,97697.03
2022-08-29T09:30:38.663Z,97688.66
2022-08-29T09:33:09.979Z,97685.59
2022-08-29T09:35:41.518Z,97684.97
2022-08-29T09:38:11.867Z,97686.78
2022-08-29T09:41:02.195Z,97685.00
2022-08-29T09:43:45.256Z,97684.47
2022-08-29T09:46:17.752Z,97685.94
2022-08-29T09:48:47.435Z,97685.41
2022-08-29T09:51:24.642Z,97681.91
2022-08-29T09:53:54.072Z,97684.59
2022-08-29T09:56:25.591Z,97680.50
2022-08-29T09:59:03.610Z,97675.66
2022-08-29T10:01:32.697Z,97684.13
2022-08-29T10:04:06.590Z,97676.03
2022-08-29T10:06:45.139Z,97677.84
2022-08-29T10:09:27.600Z,97679.06
2022-08-29T10:12:00.594Z,97681.00
2022-08-29T10:14:32.458Z,97674.19
2022-08-29T10:17:17.237Z,97672.03
2022-08-29T10:19:45.714Z,97681.41
2022-08-29T10:25:00.220Z,97685.09
2022-08-29T10:27:33.775Z,97680.56
2022-08-29T10:30:07.280Z,97687.66
2022-08-29T10:32:47.070Z,97686.84
2022-08-29T10:35:17.992Z,97696.69
2022-08-29T10:37:54.395Z,97692.03
2022-08-29T10:40:28.506Z,97707.19
2022-08-29T10:43:25.489Z,97730.78
2022-08-29T10:46:10.951Z,97768.28
2022-08-29T10:48:43.744Z,97810.84
2022-08-29T10:51:18.693Z,97816.25
2022-08-29T10:53:51.462Z,97821.78
2022-08-29T10:56:22.895Z,97833.84
2022-08-29T10:59:03.806Z,97830.81
2022-08-29T11:01:35.687Z,97831.81
2022-08-29T11:04:14.004Z,97818.34
2022-08-29T11:06:45.906Z,97831.28
2022-08-29T11:09:19.313Z,97846.97
2022-08-29T11:11:56.137Z,97850.75
2022-08-29T11:14:29.677Z,97863.28
2022-08-29T11:16:58.570Z,97865.28
2022-08-29T11:19:34.104Z,97870.56
2022-08-29T11:22:05.895Z,97845.28
2022-08-29T11:24:37.984Z,97845.56
2022-08-29T11:27:12.528Z,97833.72
2022-08-29T11:29:48.041Z,97837.50
2022-08-29T11:32:21.977Z,97830.06
2022-08-29T11:35:02.491Z,97837.63
2022-08-29T11:38:10.695Z,97825.88
2022-08-29T11:43:42.858Z,97827.09
2022-08-29T11:46:13.905Z,97822.63
2022-08-29T11:48:43.639Z,97824.28
2022-08-29T11:51:35.986Z,97823.25
2022-08-29T11:54:41.066Z,97828.94
2022-08-29T11:57:52.504Z,97827.38
2022-08-29T12:00:34.800Z,97828.03
2022-08-29T12:03:07.333Z,97831.09
2022-08-29T12:05:59.542Z,97842.53
2022-08-29T12:08:37.828Z,97819.59
2022-08-29T12:11:07.765Z,97813.66
2022-08-29T12:14:00.669Z,97807.69
2022-08-29T12:16:50.487Z,97801.13
2022-08-29T12:19:48.326Z,97792.00
2022-08-29T12:22:48.520Z,97790.25
2022-08-29T12:25:43.389Z,97801.75
2022-08-29T12:28:33.445Z,97792.69
2022-08-29T12:31:13.319Z,97778.56
2022-08-29T12:34:03.965Z,97772.31
2022-08-29T12:36:39.536Z,97779.94
2022-08-29T12:39:26.289Z,97791.78
2022-08-29T12:42:08.417Z,97789.94
2022-08-29T12:44:41.826Z,97771.78
2022-08-29T12:47:13.013Z,97769.19
2022-08-29T12:49:48.567Z,97766.16
2022-08-29T12:52:26.768Z,97763.91
2022-08-29T12:54:56.725Z,97758.25
2022-08-29T12:57:31.137Z,97739.31
2022-08-29T12:59:59.751Z,97734.97
2022-08-29T13:02:30.120Z,97738.88
2022-08-29T13:05:00.573Z,97731.91
2022-08-29T13:07:29.782Z,97722.69
2022-08-29T13:09:59.201Z,97732.66
2022-08-29T13:12:29.109Z,97718.25
2022-08-29T13:15:00.275Z,97704.47
2022-08-29T13:17:34.330Z,97690.69
2022-08-29T13:20:43.065Z,97686.56
2022-08-29T13:23:23.233Z,97671.13
2022-08-29T13:25:54.783Z,97667.78
2022-08-29T13:28:27.853Z,97656.50
2022-08-29T13:31:22.521Z,97653.03
2022-08-29T13:34:19.490Z,97645.34
2022-08-29T13:37:00.145Z,97652.38
2022-08-29T13:39:41.172Z,97646.53
2022-08-29T13:42:15.804Z,97637.53
2022-08-29T13:45:12.305Z,97643.53
2022-08-29T13:47:57.139Z,97642.25
2022-08-29T13:50:29.168Z,97629.72
2022-08-29T13:52:59.458Z,97634.72
2022-08-29T13:55:27.879Z,97626.16
2022-08-29T13:57:56.859Z,97619.22
2022-08-29T14:00:34.741Z,97618.78
2022-08-29T14:03:05.724Z,97614.31
2022-08-29T14:05:35.319Z,97613.69
2022-08-29T14:08:06.626Z,97608.69
2022-08-29T14:10:35.305Z,97601.38
2022-08-29T14:13:03.763Z,97596.47
2022-08-29T14:15:32.134Z,97588.13
2022-08-29T14:18:00.513Z,97595.84
2022-08-29T14:20:28.720Z,97591.94
2022-08-29T14:22:57.036Z,97595.69
2022-08-29T14:25:27.159Z,97595.34
2022-08-29T14:27:55.770Z,97591.69
2022-08-29T14:30:25.921Z,97593.19
2022-08-29T14:32:54.267Z,97590.22
2022-08-29T14:35:26.393Z,97580.72
2022-08-29T14:38:01.133Z,97575.03
2022-08-29T14:40:32.340Z,97577.44
2022-08-29T14:43:01.837Z,97576.69
2022-08-29T14:45:31.353Z,97574.28
2022-08-29T14:47:59.662Z,97579.47
2022-08-29T14:50:28.352Z,97575.97
2022-08-29T14:52:56.929Z,97579.25
2022-08-29T14:55:25.590Z,97580.22
2022-08-29T14:57:55.247Z,97579.50
2022-08-29T15:00:26.549Z,97577.59
2022-08-29T15:02:55.076Z,97570.44
2022-08-29T15:05:23.432Z,97566.31
2022-08-29T15:07:52.107Z,97565.81
2022-08-29T15:10:22.313Z,97565.13
2022-08-29T15:12:50.706Z,97563.69
2022-08-29T15:15:21.245Z,97559.84
2022-08-29T15:17:49.514Z,97562.16
2022-08-29T15:20:35.343Z,97558.69
2022-08-29T15:23:05.347Z,97559.13
2022-08-29T15:25:33.894Z,97553.72
2022-08-29T15:28:02.389Z,97556.81
2022-08-29T15:30:31.920Z,97556.13
2022-08-29T15:33:00.421Z,97550.94
2022-08-29T15:35:28.623Z,97546.91
2022-08-29T15:37:57.442Z,97558.28
2022-08-29T15:40:26.478Z,97549.09
2022-08-29T15:42:54.702Z,97548.28
2022-08-29T15:45:23.254Z,97538.28
2022-08-29T15:47:54.126Z,97545.59
2022-08-29T15:50:23.661Z,97535.69
2022-08-29T15:52:52.404Z,97539.56
2022-08-29T15:55:20.970Z,97538.31
2022-08-29T15:57:52.344Z,97542.97
2022-08-29T16:00:30.454Z,97548.63
2022-08-29T16:03:04.531Z,97549.06
2022-08-29T16:05:33.727Z,97551.03
2022-08-29T16:08:02.587Z,97549.72
2022-08-29T16:10:31.674Z,97552.09
2022-08-29T16:13:00.405Z,97543.47
2022-08-29T16:15:31.249Z,97549.28
2022-08-29T16:18:00.479Z,97550.09
2022-08-29T16:20:30.680Z,97549.97
2022-08-29T16:23:00.406Z,97550.22
2022-08-29T16:25:31.123Z,97550.78
2022-08-29T16:27:59.425Z,97557.03
2022-08-29T16:30:27.982Z,97561.59
2022-08-29T16:32:56.548Z,97559.66
2022-08-29T16:35:25.838Z,97564.50
2022-08-29T16:38:02.826Z,97568.59
2022-08-29T16:40:32.311Z,97564.75
2022-08-29T16:43:02.333Z,97577.34
2022-08-29T16:45:32.196Z,97565.91
2022-08-29T16:48:00.683Z,97573.72
2022-08-29T16:50:29.323Z,97565.91
2022-08-29T16:52:59.015Z,97571.31
2022-08-29T16:55:28.815Z,97571.25
2022-08-29T16:58:15.153Z,97572.06
2022-08-29T17:00:44.498Z,97575.59
2022-08-29T17:03:16.824Z,97580.88
2022-08-29T17:05:49.663Z,97587.00
2022-08-29T17:08:18.560Z,97579.69
2022-08-29T17:10:45.695Z,97580.25
2022-08-29T17:13:12.780Z,97586.38
2022-08-29T17:15:40.196Z,97590.69
2022-08-29T17:18:08.927Z,97600.88
2022-08-29T17:20:37.880Z,97601.78
2022-08-29T17:23:10.095Z,97594.88
2022-08-29T17:25:40.915Z,97602.19
2022-08-29T17:28:18.563Z,97597.72
2022-08-29T17:30:48.884Z,97602.09
2022-08-29T17:33:17.825Z,97603.13
2022-08-29T17:35:46.476Z,97604.66
2022-08-29T17:38:15.848Z,97601.19
2022-08-29T17:40:46.132Z,97608.63
2022-08-29T17:43:18.417Z,97612.09
2022-08-29T17:45:47.229Z,97612.28
2022-08-29T17:48:15.799Z,97619.25
2022-08-29T17:50:44.583Z,97625.75
2022-08-29T17:53:12.863Z,97631.81
2022-08-29T17:55:41.480Z,97631.22
2022-08-29T17:58:11.215Z,97633.13
2022-08-29T18:00:39.627Z,97641.72
2022-08-29T18:03:07.910Z,97650.19
2022-08-29T18:05:36.235Z,97653.84
2022-08-29T18:08:05.155Z,97660.16
2022-08-29T18:10:33.505Z,97662.97
2022-08-29T18:13:01.789Z,97661.94
2022-08-29T18:15:32.348Z,97661.53
2022-08-29T18:18:04.112Z,97671.06
2022-08-29T18:20:32.502Z,97674.72
2022-08-29T18:23:00.806Z,97686.03
2022-08-29T18:25:29.470Z,97690.63
2022-08-29T18:27:58.977Z,97699.94
2022-08-29T18:30:27.858Z,97702.75
2022-08-29T18:32:59.023Z,97708.47
2022-08-29T18:35:27.299Z,97711.44
2022-08-29T18:37:55.639Z,97718.19
2022-08-29T18:40:24.582Z,97724.94
2022-08-29T18:42:53.306Z,97727.13
2022-08-29T18:45:21.561Z,97733.28
2022-08-29T18:47:49.932Z,97740.72
2022-08-29T18:50:37.887Z,97743.34
2022-08-29T18:53:09.924Z,97753.19
2022-08-29T18:55:38.848Z,97754.41
2022-08-29T18:58:07.502Z,97749.81
2022-08-29T19:00:36.570Z,97760.81
2022-08-29T19:03:06.233Z,97757.38
2022-08-29T19:05:36.439Z,97756.53
2022-08-29T19:08:05.822Z,97761.81
2022-08-29T19:10:34.356Z,97761.44
2022-08-29T19:13:03.330Z,97757.94
2022-08-29T19:15:32.169Z,97761.38
2022-08-29T19:18:00.795Z,97765.59
2022-08-29T19:20:47.074Z,97763.06
2022-08-29T19:23:17.151Z,97764.06
2022-08-29T19:25:45.844Z,97769.19
2022-08-29T19:28:14.704Z,97771.44
2022-08-29T19:30:44.326Z,97775.84
2022-08-29T19:33:15.408Z,97774.47
2022-08-29T19:35:44.130Z,97780.47
2022-08-29T19:38:13.116Z,97781.91
2022-08-29T19:40:43.192Z,97781.75
2022-08-29T19:43:13.542Z,97778.56
2022-08-29T19:48:15.192Z,97781.09
2022-08-29T19:50:47.545Z,97784.38
2022-08-29T19:53:25.921Z,97780.94
2022-08-29T19:55:57.216Z,97782.56
2022-08-29T19:58:31.964Z,97785.34
2022-08-29T20:01:02.609Z,97799.50
2022-08-29T20:03:33.124Z,97803.91
2022-08-29T20:06:07.011Z,97806.63
2022-08-29T20:08:37.616Z,97815.56
2022-08-29T20:11:07.891Z,97813.50
2022-08-29T20:13:36.685Z,97800.56
2022-08-29T20:26:03.494Z,97793.06
2022-08-29T20:31:34.519Z,97808.00
2022-08-29T20:34:03.029Z,97805.72
2022-08-29T20:36:48.673Z,97806.47
2022-08-29T20:39:19.658Z,97813.88
2022-08-29T20:41:51.248Z,97811.81
2022-08-29T20:44:20.544Z,97815.31
2022-08-29T20:46:52.125Z,97813.63
2022-08-29T20:49:23.624Z,97810.88
2022-08-29T20:51:52.608Z,97815.16
2022-08-29T20:54:23.827Z,97811.00
2022-08-29T20:56:53.106Z,97812.25
2022-08-29T20:59:23.541Z,97811.47
2022-08-29T21:01:56.500Z,97808.25
2022-08-29T21:04:42.223Z,97804.34
2022-08-29T21:07:12.111Z,97800.53
2022-08-29T21:09:43.339Z,97808.25
2022-08-29T21:12:13.796Z,97806.75
2022-08-29T21:14:42.089Z,97805.00
2022-08-29T21:17:12.859Z,97808.28
2022-08-29T21:19:41.577Z,97814.84
2022-08-29T21:22:10.821Z,97811.47
2022-08-29T21:24:39.408Z,97805.06
2022-08-29T21:27:08.080Z,97808.38
2022-08-29T21:29:36.362Z,97809.88
2022-08-29T21:32:05.016Z,97804.81
2022-08-29T21:34:34.660Z,97812.09
2022-08-29T21:37:03.620Z,97811.72
2022-08-29T21:39:32.121Z,97805.63
2022-08-29T21:42:01.454Z,97817.97
2022-08-29T21:44:31.705Z,97818.84
2022-08-29T21:47:00.167Z,97825.84
2022-08-29T21:49:30.423Z,97819.06
2022-08-29T21:52:00.588Z,97819.81
2022-08-29T21:54:29.006Z,97812.63
2022-08-29T21:56:57.327Z,97806.28
2022-08-29T21:59:28.402Z,97817.34
2022-08-29T22:01:57.088Z,97814.56
2022-08-29T22:04:28.661Z,97816.75
2022-08-29T22:06:59.840Z,97811.31
2022-08-29T22:09:29.125Z,97814.13
2022-08-29T22:11:57.424Z,97823.34
2022-08-29T22:14:46.836Z,97818.44
2022-08-29T22:17:14.418Z,97819.13
2022-08-29T22:19:42.959Z,97821.31
2022-08-29T22:22:12.938Z,97818.97
2022-08-29T22:24:41.221Z,97827.56
2022-08-29T22:27:09.573Z,97818.38
2022-08-29T22:29:38.247Z,97824.63
2022-08-29T22:32:06.692Z,97818.44
2022-08-29T22:34:35.204Z,97825.09
2022-08-29T22:37:03.585Z,97822.56
2022-08-29T22:39:33.310Z,97813.03
2022-08-29T22:42:01.550Z,97814.13
2022-08-29T22:44:59.628Z,97820.91
2022-08-29T22:47:18.645Z,97825.16
2022-08-29T22:49:47.056Z,97814.00
2022-08-29T22:52:15.245Z,97820.84
2022-08-29T22:54:44.921Z,97824.38
2022-08-29T22:57:14.866Z,97828.38
2022-08-29T22:59:44.115Z,97838.25
2022-08-29T23:02:12.848Z,97839.09
2022-08-29T23:04:41.287Z,97824.63
2022-08-29T23:07:11.679Z,97811.94
2022-08-29T23:09:40.752Z,97811.25
2022-08-29T23:12:11.683Z,97816.00
2022-08-29T23:14:40.694Z,97819.50
2022-08-29T23:17:09.980Z,97829.31
2022-08-29T23:19:41.119Z,97827.97
2022-08-29T23:22:10.175Z,97830.22
2022-08-29T23:24:39.216Z,97831.91
2022-08-29T23:27:10.933Z,97845.06
2022-08-29T23:29:41.986Z,97835.22
2022-08-29T23:32:10.363Z,97833.16
2022-08-29T23:34:38.783Z,97848.34
2022-08-29T23:37:07.010Z,97855.59
2022-08-29T23:39:35.236Z,97846.72
2022-08-29T23:42:03.596Z,97858.97
2022-08-29T23:44:33.259Z,97849.00
2022-08-29T23:47:01.444Z,97832.94
2022-08-29T23:49:29.774Z,97837.63
2022-08-29T23:51:59.192Z,97840.91
2022-08-29T23:54:29.564Z,97842.88
2022-08-29T23:56:57.770Z,97841.16
2022-08-29T23:59:43.466Z,97842.50
